sensor_id;sensor_type;location;lat;lon;timestamp;pressure;altitude;pressure_sealevel;temperature;humidity
79639;BME280;69114;49.108;8.280;2023-04-19T00:00:09;101134.16;;;9.61;69.40
79639;BME280;69114;49.108;8.280;2023-04-19T00:02:35;101140.25;;;9.63;70.61
79639;BME280;69114;49.108;8.280;2023-04-19T00:05:01;101132.75;;;9.59;69.81
79639;BME280;69114;49.108;8.280;2023-04-19T00:07:26;101139.16;;;9.64;70.62
79639;BME280;69114;49.108;8.280;2023-04-19T00:09:52;101143.06;;;9.58;70.37
79639;BME280;69114;49.108;8.280;2023-04-19T00:12:17;101139.75;;;9.56;70.49
79639;BME280;69114;49.108;8.280;2023-04-19T00:14:43;101125.28;;;9.54;70.87
79639;BME280;69114;49.108;8.280;2023-04-19T00:17:08;101129.19;;;9.53;70.89
79639;BME280;69114;49.108;8.280;2023-04-19T00:19:35;101125.84;;;9.56;70.74
79639;BME280;69114;49.108;8.280;2023-04-19T00:22:01;101120.28;;;9.56;70.10
79639;BME280;69114;49.108;8.280;2023-04-19T00:24:26;101121.41;;;9.55;70.05
79639;BME280;69114;49.108;8.280;2023-04-19T00:26:52;101124.22;;;9.50;70.40
79639;BME280;69114;49.108;8.280;2023-04-19T00:29:17;101120.84;;;9.48;70.12
79639;BME280;69114;49.108;8.280;2023-04-19T00:31:43;101129.78;;;9.50;70.59
79639;BME280;69114;49.108;8.280;2023-04-19T00:34:08;101125.88;;;9.51;70.33
79639;BME280;69114;49.108;8.280;2023-04-19T00:36:33;101126.16;;;9.49;70.65
79639;BME280;69114;49.108;8.280;2023-04-19T00:38:59;101126.16;;;9.49;70.85
79639;BME280;69114;49.108;8.280;2023-04-19T00:41:24;101123.38;;;9.44;71.54
79639;BME280;69114;49.108;8.280;2023-04-19T00:43:50;101127.88;;;9.40;70.76
79639;BME280;69114;49.108;8.280;2023-04-19T00:46:15;101125.34;;;9.39;71.63
79639;BME280;69114;49.108;8.280;2023-04-19T00:48:40;101129.28;;;9.33;71.43
79639;BME280;69114;49.108;8.280;2023-04-19T00:51:06;101130.09;;;9.33;71.66
79639;BME280;69114;49.108;8.280;2023-04-19T00:53:34;101130.38;;;9.37;71.39
79639;BME280;69114;49.108;8.280;2023-04-19T00:56:01;101124.25;;;9.35;72.04
79639;BME280;69114;49.108;8.280;2023-04-19T00:58:29;101127.88;;;9.30;71.70
79639;BME280;69114;49.108;8.280;2023-04-19T01:00:56;101128.19;;;9.29;71.60
79639;BME280;69114;49.108;8.280;2023-04-19T01:03:21;101126.53;;;9.28;71.77
79639;BME280;69114;49.108;8.280;2023-04-19T01:05:47;101120.41;;;9.31;71.53
79639;BME280;69114;49.108;8.280;2023-04-19T01:08:13;101121.25;;;9.26;72.26
79639;BME280;69114;49.108;8.280;2023-04-19T01:10:38;101115.97;;;9.24;71.99
79639;BME280;69114;49.108;8.280;2023-04-19T01:13:04;101121.78;;;9.28;72.28
79639;BME280;69114;49.108;8.280;2023-04-19T01:15:29;101122.63;;;9.23;72.47
79639;BME280;69114;49.108;8.280;2023-04-19T01:17:56;101114.31;;;9.23;72.59
79639;BME280;69114;49.108;8.280;2023-04-19T01:20:21;101119.03;;;9.23;72.70
79639;BME280;69114;49.108;8.280;2023-04-19T01:22:47;101112.34;;;9.24;72.14
79639;BME280;69114;49.108;8.280;2023-04-19T01:25:12;101117.38;;;9.22;72.08
79639;BME280;69114;49.108;8.280;2023-04-19T01:27:37;101110.38;;;9.30;71.29
79639;BME280;69114;49.108;8.280;2023-04-19T01:30:03;101114.84;;;9.26;72.22
79639;BME280;69114;49.108;8.280;2023-04-19T01:32:28;101111.53;;;9.18;72.61
79639;BME280;69114;49.108;8.280;2023-04-19T01:34:54;101106.50;;;9.26;72.19
79639;BME280;69114;49.108;8.280;2023-04-19T01:37:19;101107.34;;;9.26;72.28
79639;BME280;69114;49.108;8.280;2023-04-19T01:39:45;101098.19;;;9.20;72.45
79639;BME280;69114;49.108;8.280;2023-04-19T01:42:10;101099.88;;;9.21;72.31
79639;BME280;69114;49.108;8.280;2023-04-19T01:44:35;101099.31;;;9.14;72.80
79639;BME280;69114;49.108;8.280;2023-04-19T01:47:01;101104.59;;;9.16;73.37
79639;BME280;69114;49.108;8.280;2023-04-19T01:49:26;101095.44;;;9.15;72.85
79639;BME280;69114;49.108;8.280;2023-04-19T01:51:51;101091.00;;;9.09;72.74
79639;BME280;69114;49.108;8.280;2023-04-19T01:54:17;101094.09;;;9.08;73.41
79639;BME280;69114;49.108;8.280;2023-04-19T01:56:42;101090.47;;;9.12;73.32
79639;BME280;69114;49.108;8.280;2023-04-19T01:59:07;101104.06;;;9.09;72.99
79639;BME280;69114;49.108;8.280;2023-04-19T02:01:33;101086.56;;;9.08;73.08
79639;BME280;69114;49.108;8.280;2023-04-19T02:03:58;101081.88;;;8.98;72.28
79639;BME280;69114;49.108;8.280;2023-04-19T02:06:24;101080.78;;;9.00;73.39
79639;BME280;69114;49.108;8.280;2023-04-19T02:08:51;101079.38;;;9.02;73.22
79639;BME280;69114;49.108;8.280;2023-04-19T02:11:16;101079.09;;;9.04;72.89
79639;BME280;69114;49.108;8.280;2023-04-19T02:13:41;101078.25;;;9.03;72.83
79639;BME280;69114;49.108;8.280;2023-04-19T02:16:07;101078.25;;;9.03;72.90
79639;BME280;69114;49.108;8.280;2023-04-19T02:18:34;101079.38;;;9.02;73.44
79639;BME280;69114;49.108;8.280;2023-04-19T02:21:07;101074.66;;;9.03;73.66
79639;BME280;69114;49.108;8.280;2023-04-19T02:23:32;101078.84;;;8.95;73.45
79639;BME280;69114;49.108;8.280;2023-04-19T02:25:58;101070.47;;;9.00;72.72
79639;BME280;69114;49.108;8.280;2023-04-19T02:28:26;101065.75;;;9.01;73.09
79639;BME280;69114;49.108;8.280;2023-04-19T02:30:52;101061.84;;;9.02;73.08
79639;BME280;69114;49.108;8.280;2023-04-19T02:33:17;101065.47;;;8.97;72.71
79639;BME280;69114;49.108;8.280;2023-04-19T02:35:42;101064.38;;;8.98;72.83
79639;BME280;69114;49.108;8.280;2023-04-19T02:38:08;101062.44;;;8.98;72.36
79639;BME280;69114;49.108;8.280;2023-04-19T02:40:33;101058.56;;;8.94;72.45
79639;BME280;69114;49.108;8.280;2023-04-19T02:42:58;101062.22;;;8.85;72.96
79639;BME280;69114;49.108;8.280;2023-04-19T02:45:24;101060.53;;;8.89;73.25
79639;BME280;69114;49.108;8.280;2023-04-19T02:47:49;101056.63;;;8.90;72.85
79639;BME280;69114;49.108;8.280;2023-04-19T02:50:16;101059.94;;;8.92;72.43
79639;BME280;69114;49.108;8.280;2023-04-19T02:52:41;101061.03;;;8.96;72.23
79639;BME280;69114;49.108;8.280;2023-04-19T02:55:07;101055.50;;;8.91;72.25
79639;BME280;69114;49.108;8.280;2023-04-19T02:57:32;101057.75;;;8.89;72.21
79639;BME280;69114;49.108;8.280;2023-04-19T02:59:58;101060.50;;;8.94;72.30
79639;BME280;69114;49.108;8.280;2023-04-19T03:02:24;101052.72;;;8.91;72.43
79639;BME280;69114;49.108;8.280;2023-04-19T03:04:49;101054.38;;;8.92;72.86
79639;BME280;69114;49.108;8.280;2023-04-19T03:07:14;101047.19;;;8.91;72.80
79639;BME280;69114;49.108;8.280;2023-04-19T03:09:40;101051.06;;;8.90;72.50
79639;BME280;69114;49.108;8.280;2023-04-19T03:12:06;101045.22;;;8.91;72.40
79639;BME280;69114;49.108;8.280;2023-04-19T03:14:31;101041.38;;;8.82;72.76
79639;BME280;69114;49.108;8.280;2023-04-19T03:16:58;101046.09;;;8.82;72.53
79639;BME280;69114;49.108;8.280;2023-04-19T03:19:23;101042.19;;;8.83;72.16
79639;BME280;69114;49.108;8.280;2023-04-19T03:21:49;101046.94;;;8.82;72.61
79639;BME280;69114;49.108;8.280;2023-04-19T03:24:14;101033.63;;;8.79;72.60
79639;BME280;69114;49.108;8.280;2023-04-19T03:26:39;101033.88;;;8.78;72.95
79639;BME280;69114;49.108;8.280;2023-04-19T03:29:07;101035.56;;;8.79;72.78
79639;BME280;69114;49.108;8.280;2023-04-19T03:31:33;101041.69;;;8.76;73.36
79639;BME280;69114;49.108;8.280;2023-04-19T03:33:58;101036.63;;;8.83;72.85
79639;BME280;69114;49.108;8.280;2023-04-19T03:36:23;101028.59;;;8.81;72.95
79639;BME280;69114;49.108;8.280;2023-04-19T03:38:49;101035.81;;;8.82;72.79
79639;BME280;69114;49.108;8.280;2023-04-19T03:41:26;101025.00;;;8.81;72.82
79639;BME280;69114;49.108;8.280;2023-04-19T03:43:52;101033.03;;;8.82;72.29
79639;BME280;69114;49.108;8.280;2023-04-19T03:46:17;101031.09;;;8.83;72.33
79639;BME280;69114;49.108;8.280;2023-04-19T03:48:43;101025.00;;;8.81;73.43
79639;BME280;69114;49.108;8.280;2023-04-19T03:51:08;101022.19;;;8.86;72.14
79639;BME280;69114;49.108;8.280;2023-04-19T03:53:35;101021.41;;;8.75;73.10
79639;BME280;69114;49.108;8.280;2023-04-19T03:56:00;101018.94;;;8.74;72.69
79639;BME280;69114;49.108;8.280;2023-04-19T03:58:26;101018.34;;;8.71;73.31
79639;BME280;69114;49.108;8.280;2023-04-19T04:00:51;101013.63;;;8.72;73.60
79639;BME280;69114;49.108;8.280;2023-04-19T04:03:17;101022.53;;;8.74;72.61
79639;BME280;69114;49.108;8.280;2023-04-19T04:05:43;101016.69;;;8.70;73.03
79639;BME280;69114;49.108;8.280;2023-04-19T04:08:08;101013.06;;;8.75;72.60
79639;BME280;69114;49.108;8.280;2023-04-19T04:10:33;101019.47;;;8.76;72.47
79639;BME280;69114;49.108;8.280;2023-04-19T04:12:59;101014.47;;;8.72;72.83
79639;BME280;69114;49.108;8.280;2023-04-19T04:15:24;101017.53;;;8.71;73.23
79639;BME280;69114;49.108;8.280;2023-04-19T04:17:49;101013.34;;;8.68;72.92
79639;BME280;69114;49.108;8.280;2023-04-19T04:20:15;101018.34;;;8.71;72.95
79639;BME280;69114;49.108;8.280;2023-04-19T04:22:41;101023.91;;;8.71;72.36
79639;BME280;69114;49.108;8.280;2023-04-19T04:25:08;101025.31;;;8.69;73.18
79639;BME280;69114;49.108;8.280;2023-04-19T04:27:33;101018.34;;;8.71;73.32
79639;BME280;69114;49.108;8.280;2023-04-19T04:29:59;101013.91;;;8.76;72.75
79639;BME280;69114;49.108;8.280;2023-04-19T04:32:25;101015.88;;;8.70;72.99
79639;BME280;69114;49.108;8.280;2023-04-19T04:34:51;101019.19;;;8.72;72.55
79639;BME280;69114;49.108;8.280;2023-04-19T04:37:16;101021.97;;;8.67;73.15
79639;BME280;69114;49.108;8.280;2023-04-19T04:39:42;101017.81;;;8.69;72.52
79639;BME280;69114;49.108;8.280;2023-04-19T04:42:07;101016.16;;;8.74;73.01
79639;BME280;69114;49.108;8.280;2023-04-19T04:44:36;101013.34;;;8.68;72.93
79639;BME280;69114;49.108;8.280;2023-04-19T04:47:01;101020.00;;;8.72;72.43
79639;BME280;69114;49.108;8.280;2023-04-19T04:49:28;101017.22;;;8.78;72.38
79639;BME280;69114;49.108;8.280;2023-04-19T04:51:53;101013.06;;;8.75;72.92
79639;BME280;69114;49.108;8.280;2023-04-19T04:54:19;101017.22;;;8.78;73.09
79639;BME280;69114;49.108;8.280;2023-04-19T04:56:44;101025.28;;;8.79;72.99
79639;BME280;69114;49.108;8.280;2023-04-19T04:59:09;101026.66;;;8.77;73.08
79639;BME280;69114;49.108;8.280;2023-04-19T05:01:35;101028.09;;;8.74;72.55
79639;BME280;69114;49.108;8.280;2023-04-19T05:04:00;101025.00;;;8.76;72.97
79639;BME280;69114;49.108;8.280;2023-04-19T05:06:26;101030.56;;;8.76;73.04
79639;BME280;69114;49.108;8.280;2023-04-19T05:08:51;101019.72;;;8.79;72.90
79639;BME280;69114;49.108;8.280;2023-04-19T05:11:16;101014.41;;;8.83;72.64
79639;BME280;69114;49.108;8.280;2023-04-19T05:13:42;101023.59;;;8.83;73.29
79639;BME280;69114;49.108;8.280;2023-04-19T05:16:07;101022.19;;;8.86;72.48
79639;BME280;69114;49.108;8.280;2023-04-19T05:18:33;101022.50;;;8.84;72.57
79639;BME280;69114;49.108;8.280;2023-04-19T05:20:58;101031.94;;;8.78;72.93
79639;BME280;69114;49.108;8.280;2023-04-19T05:23:23;101028.31;;;8.88;72.44
79639;BME280;69114;49.108;8.280;2023-04-19T05:25:49;101028.56;;;8.91;72.44
79639;BME280;69114;49.108;8.280;2023-04-19T05:28:14;101033.84;;;8.93;71.84
79639;BME280;69114;49.108;8.280;2023-04-19T05:30:46;101044.94;;;8.98;71.11
79639;BME280;69114;49.108;8.280;2023-04-19T05:33:11;101034.94;;;8.92;71.75
79639;BME280;69114;49.108;8.280;2023-04-19T05:35:36;101034.91;;;8.97;71.21
79639;BME280;69114;49.108;8.280;2023-04-19T05:38:02;101036.34;;;8.94;71.90
79639;BME280;69114;49.108;8.280;2023-04-19T05:40:27;101032.13;;;8.97;72.03
79639;BME280;69114;49.108;8.280;2023-04-19T05:42:53;101029.38;;;8.92;72.37
79639;BME280;69114;49.108;8.280;2023-04-19T05:45:20;101043.56;;;8.90;73.04
79639;BME280;69114;49.108;8.280;2023-04-19T05:47:46;101039.66;;;8.96;72.58
79639;BME280;69114;49.108;8.280;2023-04-19T05:50:11;101033.00;;;8.97;72.29
79639;BME280;69114;49.108;8.280;2023-04-19T05:52:39;101035.75;;;9.03;72.12
79639;BME280;69114;49.108;8.280;2023-04-19T05:55:05;101043.78;;;9.04;72.54
79639;BME280;69114;49.108;8.280;2023-04-19T05:57:30;101048.19;;;9.10;71.75
79639;BME280;69114;49.108;8.280;2023-04-19T05:59:56;101043.22;;;9.12;71.46
79639;BME280;69114;49.108;8.280;2023-04-19T06:02:21;101046.50;;;9.19;71.41
79639;BME280;69114;49.108;8.280;2023-04-19T06:04:46;101050.69;;;9.17;71.48
79639;BME280;69114;49.108;8.280;2023-04-19T06:07:12;101047.63;;;9.18;71.63
79639;BME280;69114;49.108;8.280;2023-04-19T06:09:37;101048.41;;;9.24;71.74
79639;BME280;69114;49.108;8.280;2023-04-19T06:12:02;101047.00;;;9.32;71.65
79639;BME280;69114;49.108;8.280;2023-04-19T06:14:28;101050.03;;;9.35;71.47
79639;BME280;69114;49.108;8.280;2023-04-19T06:16:53;101043.34;;;9.36;70.77
79639;BME280;69114;49.108;8.280;2023-04-19T06:19:18;101050.81;;;9.46;70.96
79639;BME280;69114;49.108;8.280;2023-04-19T06:21:45;101043.53;;;9.55;71.29
79639;BME280;69114;49.108;8.280;2023-04-19T06:24:11;101046.22;;;9.65;69.71
79639;BME280;69114;49.108;8.280;2023-04-19T06:29:13;101047.28;;;9.74;68.60
79639;BME280;69114;49.108;8.280;2023-04-19T06:31:39;101035.50;;;9.88;69.20
79639;BME280;69114;49.108;8.280;2023-04-19T06:34:04;101049.94;;;9.90;69.46
79639;BME280;69114;49.108;8.280;2023-04-19T06:36:29;101041.50;;;10.00;68.65
79639;BME280;69114;49.108;8.280;2023-04-19T06:38:55;101039.13;;;10.17;68.29
79639;BME280;69114;49.108;8.280;2023-04-19T06:41:20;101048.41;;;10.42;67.27
79639;BME280;69114;49.108;8.280;2023-04-19T06:43:45;101046.63;;;10.51;66.46
79639;BME280;69114;49.108;8.280;2023-04-19T06:46:11;101043.84;;;10.51;66.70
79639;BME280;69114;49.108;8.280;2023-04-19T06:48:37;101040.56;;;10.44;66.85
79639;BME280;69114;49.108;8.280;2023-04-19T06:51:03;101040.50;;;10.49;67.12
79639;BME280;69114;49.108;8.280;2023-04-19T06:53:28;101041.47;;;10.63;67.41
79639;BME280;69114;49.108;8.280;2023-04-19T06:55:58;101035.25;;;10.47;66.88
79639;BME280;69114;49.108;8.280;2023-04-19T06:58:25;101042.78;;;10.71;66.17
79639;BME280;69114;49.108;8.280;2023-04-19T07:00:51;101043.88;;;10.75;65.73
79639;BME280;69114;49.108;8.280;2023-04-19T07:03:16;101046.91;;;11.02;64.47
79639;BME280;69114;49.108;8.280;2023-04-19T07:05:41;101042.16;;;11.03;64.67
79639;BME280;69114;49.108;8.280;2023-04-19T07:08:06;101036.25;;;11.05;64.52
79639;BME280;69114;49.108;8.280;2023-04-19T07:10:32;101039.16;;;11.18;64.92
79639;BME280;69114;49.108;8.280;2023-04-19T07:12:57;101034.63;;;11.22;63.59
79639;BME280;69114;49.108;8.280;2023-04-19T07:15:22;101039.69;;;11.20;64.97
79639;BME280;69114;49.108;8.280;2023-04-19T07:17:48;101037.53;;;11.36;63.55
79639;BME280;69114;49.108;8.280;2023-04-19T07:20:13;101030.56;;;11.34;64.18
79639;BME280;69114;49.108;8.280;2023-04-19T07:22:38;101027.78;;;11.34;64.56
79639;BME280;69114;49.108;8.280;2023-04-19T07:25:04;101022.38;;;11.42;64.15
79639;BME280;69114;49.108;8.280;2023-04-19T07:27:29;101024.00;;;11.62;63.06
79639;BME280;69114;49.108;8.280;2023-04-19T07:29:55;101015.19;;;11.74;63.91
79639;BME280;69114;49.108;8.280;2023-04-19T07:34:55;101020.66;;;11.84;61.74
79639;BME280;69114;49.108;8.280;2023-04-19T07:37:20;101022.81;;;11.68;62.25
79639;BME280;69114;49.108;8.280;2023-04-19T07:39:46;101012.69;;;11.72;62.76
79639;BME280;69114;49.108;8.280;2023-04-19T07:42:11;101014.66;;;11.91;62.99
79639;BME280;69114;49.108;8.280;2023-04-19T07:44:36;101010.88;;;11.82;63.50
79639;BME280;69114;49.108;8.280;2023-04-19T07:49:37;101005.31;;;11.63;62.66
79639;BME280;69114;49.108;8.280;2023-04-19T07:52:06;101015.72;;;11.57;63.03
79639;BME280;69114;49.108;8.280;2023-04-19T07:54:32;101008.88;;;11.49;64.05
79639;BME280;69114;49.108;8.280;2023-04-19T07:56:57;101008.81;;;11.54;64.73
79639;BME280;69114;49.108;8.280;2023-04-19T07:59:23;101010.06;;;11.62;64.07
79639;BME280;69114;49.108;8.280;2023-04-19T08:01:48;101001.09;;;11.65;63.07
79639;BME280;69114;49.108;8.280;2023-04-19T08:04:14;101008.06;;;11.82;62.24
79639;BME280;69114;49.108;8.280;2023-04-19T08:06:41;101001.13;;;12.30;61.98
79639;BME280;69114;49.108;8.280;2023-04-19T08:09:06;101006.34;;;12.78;60.41
79639;BME280;69114;49.108;8.280;2023-04-19T08:11:32;101001.25;;;12.80;59.82
79639;BME280;69114;49.108;8.280;2023-04-19T08:13:57;100989.34;;;12.61;60.83
79639;BME280;69114;49.108;8.280;2023-04-19T08:16:23;100996.41;;;12.72;59.94
79639;BME280;69114;49.108;8.280;2023-04-19T08:18:48;100995.38;;;12.68;59.54
79639;BME280;69114;49.108;8.280;2023-04-19T08:21:16;101001.78;;;12.55;59.87
79639;BME280;69114;49.108;8.280;2023-04-19T08:23:41;101000.44;;;12.66;60.50
79639;BME280;69114;49.108;8.280;2023-04-19T08:26:06;101002.00;;;12.72;60.02
79639;BME280;69114;49.108;8.280;2023-04-19T08:28:32;101012.56;;;12.89;57.79
79639;BME280;69114;49.108;8.280;2023-04-19T08:30:58;101000.94;;;12.96;58.65
79639;BME280;69114;49.108;8.280;2023-04-19T08:33:23;101000.13;;;12.81;59.59
79639;BME280;69114;49.108;8.280;2023-04-19T08:35:48;101003.34;;;12.61;59.83
79639;BME280;69114;49.108;8.280;2023-04-19T08:38:14;101008.22;;;12.69;59.60
79639;BME280;69114;49.108;8.280;2023-04-19T08:40:44;101008.00;;;12.79;59.03
79639;BME280;69114;49.108;8.280;2023-04-19T08:43:10;101000.34;;;12.85;60.16
79639;BME280;69114;49.108;8.280;2023-04-19T08:45:36;101001.47;;;12.84;60.63
79639;BME280;69114;49.108;8.280;2023-04-19T08:48:03;101000.13;;;12.81;59.40
79639;BME280;69114;49.108;8.280;2023-04-19T08:50:29;100997.63;;;12.66;60.04
79639;BME280;69114;49.108;8.280;2023-04-19T08:52:57;100996.81;;;12.52;60.23
79639;BME280;69114;49.108;8.280;2023-04-19T08:55:23;100987.28;;;12.39;60.72
79639;BME280;69114;49.108;8.280;2023-04-19T08:57:49;100986.25;;;12.49;60.35
79639;BME280;69114;49.108;8.280;2023-04-19T09:00:15;100994.09;;;12.47;60.17
79639;BME280;69114;49.108;8.280;2023-04-19T09:05:13;100982.09;;;12.33;60.35
79639;BME280;69114;49.108;8.280;2023-04-19T09:07:38;100977.59;;;12.04;61.78
79639;BME280;69114;49.108;8.280;2023-04-19T09:10:09;100973.47;;;12.15;61.24
79639;BME280;69114;49.108;8.280;2023-04-19T09:12:35;100973.97;;;12.03;62.58
79639;BME280;69114;49.108;8.280;2023-04-19T09:15:02;100974.41;;;12.11;62.04
79639;BME280;69114;49.108;8.280;2023-04-19T09:17:29;100970.47;;;12.12;62.19
79639;BME280;69114;49.108;8.280;2023-04-19T09:19:55;100970.34;;;12.03;61.77
79639;BME280;69114;49.108;8.280;2023-04-19T09:22:21;100972.88;;;11.86;62.90
79639;BME280;69114;49.108;8.280;2023-04-19T09:24:46;100967.44;;;11.75;64.13
79639;BME280;69114;49.108;8.280;2023-04-19T09:27:12;100970.13;;;11.80;63.71
79639;BME280;69114;49.108;8.280;2023-04-19T09:29:39;100972.69;;;11.82;63.20
79639;BME280;69114;49.108;8.280;2023-04-19T09:32:04;100966.09;;;11.92;62.57
79639;BME280;69114;49.108;8.280;2023-04-19T09:34:30;100966.16;;;11.87;62.32
79639;BME280;69114;49.108;8.280;2023-04-19T09:36:55;100961.09;;;11.89;62.27
79639;BME280;69114;49.108;8.280;2023-04-19T09:39:30;100961.25;;;11.78;63.12
79639;BME280;69114;49.108;8.280;2023-04-19T09:41:56;100957.28;;;11.85;61.91
79639;BME280;69114;49.108;8.280;2023-04-19T09:44:22;100948.59;;;11.67;63.98
79639;BME280;69114;49.108;8.280;2023-04-19T09:46:47;100953.16;;;11.63;63.76
79639;BME280;69114;49.108;8.280;2023-04-19T09:49:16;100941.75;;;11.60;64.06
79639;BME280;69114;49.108;8.280;2023-04-19T09:51:55;100950.47;;;11.72;64.60
79639;BME280;69114;49.108;8.280;2023-04-19T09:54:24;100943.84;;;11.68;64.14
79639;BME280;69114;49.108;8.280;2023-04-19T09:56:52;100948.75;;;11.57;64.80
79639;BME280;69114;49.108;8.280;2023-04-19T09:59:18;100945.81;;;11.48;64.96
79639;BME280;69114;49.108;8.280;2023-04-19T10:01:53;100949.81;;;11.61;64.99
79639;BME280;69114;49.108;8.280;2023-04-19T10:04:18;100936.19;;;11.60;64.93
79639;BME280;69114;49.108;8.280;2023-04-19T10:06:52;100932.06;;;11.71;63.75
79639;BME280;69114;49.108;8.280;2023-04-19T10:09:18;100940.44;;;11.90;63.58
79639;BME280;69114;49.108;8.280;2023-04-19T10:11:52;100935.38;;;11.92;64.27
79639;BME280;69114;49.108;8.280;2023-04-19T10:14:24;100927.22;;;12.09;64.19
79639;BME280;69114;49.108;8.280;2023-04-19T10:16:50;100927.69;;;12.44;62.64
79639;BME280;69114;49.108;8.280;2023-04-19T10:19:17;100922.38;;;12.70;61.33
79639;BME280;69114;49.108;8.280;2023-04-19T10:21:44;100925.91;;;12.75;61.09
79639;BME280;69114;49.108;8.280;2023-04-19T10:24:12;100926.44;;;12.77;60.85
79639;BME280;69114;49.108;8.280;2023-04-19T10:32:15;100919.28;;;12.71;59.54
79639;BME280;69114;49.108;8.280;2023-04-19T10:34:41;100907.56;;;12.83;59.77
79639;BME280;69114;49.108;8.280;2023-04-19T10:37:10;100914.16;;;13.01;58.93
79639;BME280;69114;49.108;8.280;2023-04-19T10:39:43;100917.22;;;13.27;58.38
79639;BME280;69114;49.108;8.280;2023-04-19T10:42:09;100907.41;;;13.38;58.88
79639;BME280;69114;49.108;8.280;2023-04-19T10:44:34;100902.28;;;13.31;58.54
79639;BME280;69114;49.108;8.280;2023-04-19T10:46:59;100904.22;;;13.76;57.31
79639;BME280;69114;49.108;8.280;2023-04-19T10:49:27;100894.38;;;14.09;57.08
79639;BME280;69114;49.108;8.280;2023-04-19T10:51:52;100892.47;;;13.65;55.54
79639;BME280;69114;49.108;8.280;2023-04-19T10:54:33;100889.88;;;13.10;59.40
79639;BME280;69114;49.108;8.280;2023-04-19T10:59:39;100878.66;;;13.24;59.04
79639;BME280;69114;49.108;8.280;2023-04-19T11:07:13;100870.84;;;12.62;62.65
79639;BME280;69114;49.108;8.280;2023-04-19T11:09:44;100869.41;;;12.65;62.07
79639;BME280;69114;49.108;8.280;2023-04-19T11:12:12;100862.44;;;12.62;61.72
79639;BME280;69114;49.108;8.280;2023-04-19T11:17:23;100852.75;;;12.60;62.78
79639;BME280;69114;49.108;8.280;2023-04-19T11:19:56;100850.28;;;12.58;62.42
79639;BME280;69114;49.108;8.280;2023-04-19T11:22:41;100851.91;;;12.59;62.34
79639;BME280;69114;49.108;8.280;2023-04-19T11:25:10;100855.44;;;12.51;63.18
79639;BME280;69114;49.108;8.280;2023-04-19T11:27:37;100852.16;;;12.35;63.65
79639;BME280;69114;49.108;8.280;2023-04-19T11:30:12;100845.31;;;12.41;63.59
79639;BME280;69114;49.108;8.280;2023-04-19T11:32:48;100840.88;;;12.40;62.91
79639;BME280;69114;49.108;8.280;2023-04-19T11:35:16;100849.38;;;12.35;63.54
79639;BME280;69114;49.108;8.280;2023-04-19T11:37:42;100839.13;;;12.30;63.54
79639;BME280;69114;49.108;8.280;2023-04-19T11:40:08;100842.03;;;12.12;65.60
79639;BME280;69114;49.108;8.280;2023-04-19T11:42:34;100843.88;;;11.89;67.20
79639;BME280;69114;49.108;8.280;2023-04-19T11:45:00;100840.41;;;11.64;67.90
79639;BME280;69114;49.108;8.280;2023-04-19T11:47:26;100839.25;;;11.33;68.62
79639;BME280;69114;49.108;8.280;2023-04-19T11:49:53;100835.38;;;11.15;69.54
79639;BME280;69114;49.108;8.280;2023-04-19T11:52:23;100833.81;;;11.09;69.92
79639;BME280;69114;49.108;8.280;2023-04-19T11:54:52;100832.00;;;11.18;70.76
79639;BME280;69114;49.108;8.280;2023-04-19T11:57:28;100828.94;;;11.33;70.38
79639;BME280;69114;49.108;8.280;2023-04-19T12:00:07;100835.88;;;11.36;67.86
79639;BME280;69114;49.108;8.280;2023-04-19T12:02:40;100824.13;;;11.52;66.86
79639;BME280;69114;49.108;8.280;2023-04-19T12:05:11;100825.19;;;11.70;65.55
79639;BME280;69114;49.108;8.280;2023-04-19T12:08:01;100822.84;;;11.77;65.40
79639;BME280;69114;49.108;8.280;2023-04-19T12:10:28;100825.66;;;11.77;64.13
79639;BME280;69114;49.108;8.280;2023-04-19T12:12:53;100811.19;;;11.89;63.65
79639;BME280;69114;49.108;8.280;2023-04-19T12:15:19;100815.44;;;12.00;63.95
79639;BME280;69114;49.108;8.280;2023-04-19T12:18:01;100811.00;;;12.13;63.30
79639;BME280;69114;49.108;8.280;2023-04-19T12:20:34;100806.44;;;11.90;62.96
79639;BME280;69114;49.108;8.280;2023-04-19T12:22:59;100817.91;;;11.88;62.69
79639;BME280;69114;49.108;8.280;2023-04-19T12:25:32;100811.41;;;11.93;62.82
79639;BME280;69114;49.108;8.280;2023-04-19T12:27:59;100809.56;;;12.02;63.46
79639;BME280;69114;49.108;8.280;2023-04-19T12:30:24;100806.75;;;12.02;63.08
79639;BME280;69114;49.108;8.280;2023-04-19T12:32:51;100794.44;;;11.89;63.19
79639;BME280;69114;49.108;8.280;2023-04-19T12:35:22;100806.44;;;11.90;63.49
79639;BME280;69114;49.108;8.280;2023-04-19T12:40:24;100803.16;;;12.01;62.58
79639;BME280;69114;49.108;8.280;2023-04-19T12:42:50;100799.50;;;12.01;63.00
79639;BME280;69114;49.108;8.280;2023-04-19T12:45:16;100802.09;;;11.97;63.44
79639;BME280;69114;49.108;8.280;2023-04-19T12:47:42;100795.28;;;12.03;62.88
79639;BME280;69114;49.108;8.280;2023-04-19T12:50:08;100801.69;;;12.04;62.76
79639;BME280;69114;49.108;8.280;2023-04-19T12:52:34;100795.78;;;12.05;62.42
79639;BME280;69114;49.108;8.280;2023-04-19T12:55:00;100787.72;;;12.04;61.09
79639;BME280;69114;49.108;8.280;2023-04-19T12:57:26;100785.53;;;12.15;61.43
79639;BME280;69114;49.108;8.280;2023-04-19T12:59:51;100787.63;;;12.09;61.23
79639;BME280;69114;49.108;8.280;2023-04-19T13:02:17;100786.69;;;12.14;60.86
79639;BME280;69114;49.108;8.280;2023-04-19T13:04:42;100784.47;;;12.24;61.49
79639;BME280;69114;49.108;8.280;2023-04-19T13:07:07;100775.28;;;12.24;60.29
79639;BME280;69114;49.108;8.280;2023-04-19T13:09:33;100779.53;;;12.35;60.13
79639;BME280;69114;49.108;8.280;2023-04-19T13:11:58;100771.06;;;12.26;60.70
79639;BME280;69114;49.108;8.280;2023-04-19T13:14:27;100765.53;;;12.49;60.95
79639;BME280;69114;49.108;8.280;2023-04-19T13:16:53;100757.69;;;12.73;58.76
79639;BME280;69114;49.108;8.280;2023-04-19T13:19:18;100760.03;;;13.02;59.76